Time;durP1;ratioP1;P1;durP2;ratioP2;P2;SDS_P1;SDS_P2;PMS_P1;PMS_P2;Temp;Humidity;BMP_temperature;BMP_pressure;BME280_temperature;BME280_humidity;BME280_pressure;Samples;Min_cycle;Max_cycle;Signal;HPM_P1;HPM_P2
2021/01/18 00:00:21;;;;;;;0.20;0.10;;;;;;;2.62;100.00;100972.72;5056280;28;20467;-51
2021/01/18 00:02:47;;;;;;;2.03;2.03;;;;;;;2.58;100.00;100976.13;5030702;28;20936;-51
2021/01/18 00:05:14;;;;;;;0.20;0.10;;;;;;;2.65;100.00;100973.63;5055906;28;20512;-52
2021/01/18 00:07:51;;;;;;;0.20;0.10;;;;;;;2.73;100.00;100971.09;5055888;28;20496;-52
2021/01/18 00:10:19;;;;;;;0.20;0.10;;;;;;;2.99;100.00;100976.72;5055809;28;20587;-51
2021/01/18 00:12:53;;;;;;;0.20;0.10;;;;;;;3.02;100.00;100979.41;5055774;28;20478;-51
2021/01/18 00:15:21;;;;;;;0.20;0.10;;;;;;;3.18;100.00;100968.22;5055642;28;20503;-53
2021/01/18 00:17:49;;;;;;;0.20;0.10;;;;;;;3.29;100.00;100971.00;5055188;28;20494;-51
2021/01/18 00:20:18;;;;;;;0.20;0.10;;;;;;;3.40;100.00;100963.22;5041550;28;20478;-51
2021/01/18 00:22:45;;;;;;;0.20;0.10;;;;;;;3.48;100.00;100967.69;5055174;28;20504;-51
2021/01/18 00:25:20;;;;;;;0.20;0.10;;;;;;;3.53;100.00;100965.09;5054637;28;20500;-52
2021/01/18 00:27:48;;;;;;;0.20;0.10;;;;;;;3.54;100.00;100961.59;5049835;28;20453;-52
2021/01/18 00:30:24;;;;;;;0.20;0.10;;;;;;;3.52;100.00;100968.59;5054715;28;20477;-52
2021/01/18 00:32:51;;;;;;;0.20;0.10;;;;;;;3.59;100.00;100964.31;5054802;28;20941;-52
2021/01/18 00:35:19;;;;;;;0.60;0.57;;;;;;;3.60;100.00;100961.69;5053626;28;20538;-52
2021/01/18 00:37:51;;;;;;;0.20;0.10;;;;;;;3.58;100.00;100966.06;5054064;28;20908;-52
2021/01/18 00:40:20;;;;;;;0.20;0.10;;;;;;;3.66;100.00;100969.63;5054244;28;20497;-52
2021/01/18 00:42:47;;;;;;;0.20;0.10;;;;;;;3.65;100.00;100967.00;5054141;28;20447;-51
2021/01/18 00:45:16;;;;;;;0.20;0.10;;;;;;;3.64;100.00;100966.09;5054186;28;20450;-52
2021/01/18 00:47:46;;;;;;;0.20;0.10;;;;;;;3.71;100.00;100964.44;5053855;28;20825;-52
2021/01/18 00:50:18;;;;;;;0.20;0.10;;;;;;;3.68;100.00;100962.63;5047059;28;20463;-51
2021/01/18 00:52:46;;;;;;;0.20;0.10;;;;;;;3.69;100.00;100963.50;5054059;28;20507;-52
2021/01/18 00:55:16;;;;;;;0.20;0.10;;;;;;;3.62;100.00;100964.34;5054067;28;20799;-51
2021/01/18 00:57:44;;;;;;;0.20;0.20;;;;;;;3.63;100.00;100969.59;5053578;28;20497;-52
2021/01/18 01:00:19;;;;;;;0.20;0.10;;;;;;;3.59;100.00;100969.56;5053870;28;20540;-52
2021/01/18 01:02:47;;;;;;;0.20;0.10;;;;;;;3.62;100.00;100965.22;5028376;28;20465;-51
2021/01/18 01:05:15;;;;;;;0.20;0.10;;;;;;;3.66;100.00;100960.88;5054008;28;20455;-52
2021/01/18 01:07:47;;;;;;;0.27;0.20;;;;;;;3.75;100.00;100964.47;5054267;28;20443;-51
2021/01/18 01:10:16;;;;;;;0.20;0.10;;;;;;;3.68;100.00;100969.63;5053744;28;20837;-52
2021/01/18 01:12:43;;;;;;;0.20;0.10;;;;;;;3.65;100.00;100967.00;5053854;28;20450;-52
2021/01/18 01:15:10;;;;;;;0.30;0.20;;;;;;;3.59;100.00;100970.44;5054074;28;20806;-52
2021/01/18 01:17:43;;;;;;;0.20;0.10;;;;;;;3.53;100.00;100965.09;5054142;28;20597;-51
2021/01/18 01:20:11;;;;;;;0.20;0.10;;;;;;;3.56;100.00;100959.88;5056160;22;20586;-49
2021/01/18 01:22:40;;;;;;;0.20;0.10;;;;;;;3.57;100.00;100964.31;5063137;28;20446;-49
2021/01/18 01:25:08;;;;;;;0.20;0.10;;;;;;;3.68;100.00;100964.38;5059404;28;20454;-49
2021/01/18 01:27:39;;;;;;;0.20;0.10;;;;;;;3.64;100.00;100962.59;5068565;28;20557;-49
2021/01/18 01:30:07;;;;;;;0.20;0.10;;;;;;;3.66;100.00;100969.63;5059006;28;20530;-49
2021/01/18 01:32:37;;;;;;;0.20;0.10;;;;;;;3.68;100.00;100967.00;5060934;28;20606;-49
2021/01/18 01:35:05;;;;;;;0.20;0.10;;;;;;;3.67;100.00;100960.00;5065989;28;20442;-49
2021/01/18 01:37:32;;;;;;;0.20;0.10;;;;;;;3.69;100.00;100969.66;5065071;28;20489;-49
2021/01/18 01:39:58;;;;;;;0.20;0.10;;;;;;;3.66;100.00;100972.25;5058833;28;20470;-51
2021/01/18 01:42:24;;;;;;;0.20;0.10;;;;;;;3.56;100.00;100976.56;5060039;28;20451;-52
2021/01/18 01:44:51;;;;;;;0.20;0.10;;;;;;;3.58;100.00;100976.56;5064289;28;20450;-51
2021/01/18 01:47:24;;;;;;;0.20;0.10;;;;;;;3.54;100.00;100980.00;5053276;28;20459;-49
2021/01/18 01:49:51;;;;;;;0.20;0.10;;;;;;;3.60;100.00;100981.84;5053095;28;21008;-49
2021/01/18 01:52:20;;;;;;;0.20;0.10;;;;;;;3.67;100.00;100988.91;5058790;28;20516;-49
2021/01/18 01:54:51;;;;;;;0.20;0.10;;;;;;;3.56;100.00;100987.06;5064816;28;20447;-49
2021/01/18 01:57:17;;;;;;;0.20;0.10;;;;;;;3.48;100.00;100986.09;5065425;28;20489;-49
2021/01/18 01:59:44;;;;;;;0.30;0.23;;;;;;;3.56;100.00;100987.06;5060186;28;20553;-49
2021/01/18 02:02:13;;;;;;;0.20;0.10;;;;;;;3.54;100.00;100980.00;5058645;28;20447;-49
2021/01/18 02:04:39;;;;;;;0.20;0.10;;;;;;;3.51;100.00;100988.75;5063560;28;20545;-49
2021/01/18 02:07:21;;;;;;;0.20;0.10;;;;;;;3.56;100.00;100984.44;5065241;28;20446;-49
2021/01/18 02:09:48;;;;;;;0.20;0.10;;;;;;;3.53;100.00;100994.00;5062501;28;20449;-49
2021/01/18 02:12:15;;;;;;;0.20;0.10;;;;;;;3.68;100.00;100988.91;5059204;28;20446;-49
2021/01/18 02:14:50;;;;;;;0.20;0.10;;;;;;;3.78;100.00;100989.91;5061705;28;20477;-49
2021/01/18 02:17:58;;;;;;;0.30;0.23;;;;;;;3.70;100.00;100989.84;5065265;28;20835;-49
2021/01/18 02:20:52;;;;;;;0.20;0.10;;;;;;;3.60;100.00;100987.09;5070340;28;20561;-49
2021/01/18 02:23:49;;;;;;;0.20;0.10;;;;;;;3.55;100.00;100994.91;5058326;28;20455;-49
2021/01/18 02:26:37;;;;;;;0.20;0.10;;;;;;;3.55;100.00;100998.41;5058621;28;20478;-49
2021/01/18 02:29:27;;;;;;;0.20;0.10;;;;;;;3.52;100.00;100998.38;5050961;28;20445;-49
2021/01/18 02:32:16;;;;;;;0.20;0.10;;;;;;;3.53;100.00;101002.78;5058510;28;20538;-50
2021/01/18 02:35:03;;;;;;;0.20;0.10;;;;;;;3.47;100.00;101010.59;5058255;28;20443;-49
2021/01/18 02:38:06;;;;;;;0.20;0.10;;;;;;;3.45;100.00;101011.47;5059952;28;20486;-49
2021/01/18 02:40:51;;;;;;;0.50;0.50;;;;;;;3.47;100.00;101013.25;5051796;28;20515;-50
2021/01/18 02:43:21;;;;;;;0.20;0.10;;;;;;;3.45;100.00;101014.97;5058136;28;21003;-49
2021/01/18 02:45:50;;;;;;;0.20;0.10;;;;;;;3.47;100.00;101007.09;5058659;28;20514;-50
2021/01/18 02:48:17;;;;;;;0.20;0.10;;;;;;;3.53;100.00;101004.53;5043657;28;20451;-50
2021/01/18 02:50:45;;;;;;;0.20;0.10;;;;;;;3.61;100.00;101010.75;5065155;28;20469;-49
2021/01/18 02:53:12;;;;;;;0.20;0.10;;;;;;;3.64;100.00;101002.91;5065150;28;20935;-49
2021/01/18 02:55:38;;;;;;;0.30;0.20;;;;;;;3.62;100.00;101012.53;5065088;28;20445;-50
2021/01/18 02:58:07;;;;;;;0.20;0.10;;;;;;;3.60;100.00;100998.50;5046346;28;21058;-49
2021/01/18 03:00:40;;;;;;;0.20;0.10;;;;;;;3.58;100.00;101002.84;5062163;28;20467;-50
2021/01/18 03:03:19;;;;;;;0.20;0.10;;;;;;;3.57;100.00;101016.88;5067663;28;20446;-48
2021/01/18 03:06:00;;;;;;;0.20;0.10;;;;;;;3.53;100.00;101015.91;5068685;28;20458;-49
2021/01/18 03:08:46;;;;;;;0.20;0.10;;;;;;;3.55;100.00;101019.44;5067426;28;20441;-48
2021/01/18 03:11:28;;;;;;;0.20;0.10;;;;;;;3.53;100.00;101020.28;5067424;28;20544;-49
2021/01/18 03:14:06;;;;;;;0.20;0.10;;;;;;;3.59;100.00;101009.88;5068800;28;20602;-49
2021/01/18 03:16:36;;;;;;;0.20;0.10;;;;;;;3.54;100.00;101011.53;5066775;28;20574;-49
2021/01/18 03:19:04;;;;;;;0.20;0.10;;;;;;;3.48;100.00;101020.25;5063571;28;20529;-48
2021/01/18 03:21:30;;;;;;;0.20;0.10;;;;;;;3.52;100.00;101013.28;5073661;28;20531;-50
2021/01/18 03:23:57;;;;;;;0.20;0.10;;;;;;;3.55;100.00;101013.31;5062803;28;20457;-50
2021/01/18 03:26:25;;;;;;;0.20;0.10;;;;;;;3.49;100.00;101021.13;5061188;28;20454;-50
2021/01/18 03:28:52;;;;;;;0.20;0.10;;;;;;;3.48;100.00;101024.63;5067078;28;20451;-51
2021/01/18 03:31:18;;;;;;;0.20;0.10;;;;;;;3.38;100.00;101021.00;5068042;28;20467;-48
2021/01/18 03:33:45;;;;;;;0.30;0.20;;;;;;;3.53;100.00;101020.28;5062963;28;20446;-49
2021/01/18 03:36:11;;;;;;;0.20;0.10;;;;;;;3.41;100.00;101025.41;5061255;28;20458;-49
2021/01/18 03:38:37;;;;;;;0.20;0.10;;;;;;;3.48;100.00;101035.13;5066493;28;20490;-49
2021/01/18 03:41:04;;;;;;;0.20;0.10;;;;;;;3.44;100.00;101030.72;5068019;28;20474;-49
2021/01/18 03:43:30;;;;;;;0.20;0.10;;;;;;;3.31;100.00;101020.91;5063354;28;20450;-49
2021/01/18 03:45:56;;;;;;;0.20;0.10;;;;;;;3.50;100.00;101021.16;5061040;28;20500;-49
2021/01/18 03:48:23;;;;;;;0.20;0.10;;;;;;;3.40;100.00;101023.63;5065808;28;20466;-49
2021/01/18 03:50:50;;;;;;;0.20;0.10;;;;;;;3.27;100.00;101022.59;5067434;28;20470;-49
2021/01/18 03:53:16;;;;;;;0.20;0.10;;;;;;;3.27;100.00;101019.97;5063500;28;20472;-49
2021/01/18 03:55:43;;;;;;;0.20;0.10;;;;;;;3.00;100.00;101030.09;5061259;28;20502;-49
2021/01/18 03:58:09;;;;;;;0.20;0.10;;;;;;;2.85;100.00;101036.03;5065011;28;20994;-49
2021/01/18 04:00:36;;;;;;;0.20;0.10;;;;;;;2.70;100.00;101031.44;5067489;28;20465;-51
2021/01/18 04:03:03;;;;;;;0.20;0.10;;;;;;;2.72;100.00;101026.19;5063790;28;20452;-50
2021/01/18 04:05:29;;;;;;;0.20;0.10;;;;;;;2.66;100.00;101030.50;5060529;28;20501;-51
2021/01/18 04:07:59;;;;;;;0.20;0.10;;;;;;;2.73;100.00;101030.59;5064314;28;20447;-50
2021/01/18 04:10:30;;;;;;;0.20;0.10;;;;;;;2.78;100.00;101031.56;5067012;28;20471;-48
2021/01/18 04:12:57;;;;;;;0.20;0.20;;;;;;;2.59;100.00;101019.88;5064994;28;20482;-50
2021/01/18 04:15:24;;;;;;;0.20;0.20;;;;;;;2.86;100.00;101029.91;5060523;28;20446;-50
2021/01/18 04:17:53;;;;;;;0.20;0.10;;;;;;;2.74;100.00;101028.00;5062746;28;20486;-50
2021/01/18 04:20:20;;;;;;;0.20;0.10;;;;;;;2.63;100.00;101025.22;5058293;28;20551;-49
2021/01/18 04:22:49;;;;;;;0.20;0.10;;;;;;;2.31;100.00;101027.31;5062933;28;20447;-50
2021/01/18 04:25:18;;;;;;;0.20;0.10;;;;;;;2.26;100.00;101031.59;5067209;28;20459;-50
2021/01/18 04:27:50;;;;;;;0.20;0.10;;;;;;;2.19;100.00;101026.22;5065726;28;20943;-50
2021/01/18 04:30:21;;;;;;;0.20;0.10;;;;;;;2.15;100.00;101027.91;5060010;28;20975;-50
2021/01/18 04:32:55;;;;;;;0.20;0.10;;;;;;;2.30;100.00;101027.28;5060751;28;20443;-50
2021/01/18 04:35:24;;;;;;;0.20;0.10;;;;;;;2.35;100.00;101026.53;5048845;28;20446;-49
2021/01/18 04:37:50;;;;;;;0.20;0.10;;;;;;;2.42;100.00;101027.50;5059848;28;20540;-50
2021/01/18 04:40:19;;;;;;;0.20;0.10;;;;;;;2.51;100.00;101027.66;5065977;28;20470;-49
2021/01/18 04:42:45;;;;;;;0.20;0.10;;;;;;;2.60;100.00;101034.75;5067173;28;20446;-50
2021/01/18 04:45:14;;;;;;;0.20;0.10;;;;;;;2.65;100.00;101041.88;5061940;28;20456;-50
2021/01/18 04:47:45;;;;;;;0.20;0.10;;;;;;;2.67;100.00;101034.00;5060210;28;20470;-50
2021/01/18 04:50:13;;;;;;;0.20;0.10;;;;;;;2.76;100.00;101039.41;5065170;28;20474;-49
2021/01/18 04:52:48;;;;;;;0.20;0.10;;;;;;;2.92;100.00;101040.53;5059789;28;20458;-50
2021/01/18 04:55:44;;;;;;;0.20;0.10;;;;;;;2.89;100.00;101032.59;5062905;28;20546;-50
2021/01/18 04:58:19;;;;;;;0.20;0.10;;;;;;;3.02;100.00;101031.91;5048676;28;20485;-52
2021/01/18 05:00:45;;;;;;;0.20;0.10;;;;;;;2.96;100.00;101029.19;5059625;28;20991;-49
2021/01/18 05:03:17;;;;;;;0.20;0.10;;;;;;;3.03;100.00;101023.19;5063871;28;20505;-50
2021/01/18 05:05:44;;;;;;;0.20;0.10;;;;;;;3.17;100.00;101028.63;5066329;28;20538;-49
2021/01/18 05:08:31;;;;;;;0.20;0.10;;;;;;;3.09;100.00;101025.88;5063301;28;20438;-49
2021/01/18 05:10:59;;;;;;;0.20;0.10;;;;;;;3.16;100.00;101026.84;5059521;28;20473;-50
2021/01/18 05:13:25;;;;;;;0.20;0.10;;;;;;;3.13;100.00;101034.66;5060057;28;20986;-50
2021/01/18 05:15:54;;;;;;;0.20;0.10;;;;;;;2.93;100.00;101029.16;5066229;28;20508;-50
2021/01/18 05:18:30;;;;;;;0.20;0.10;;;;;;;2.90;100.00;101037.00;5065820;28;20494;-50
2021/01/18 05:21:24;;;;;;;0.20;0.10;;;;;;;2.91;100.00;101039.63;5072102;28;20481;-50
2021/01/18 05:23:50;;;;;;;0.20;0.10;;;;;;;2.94;100.00;101044.94;5064294;28;21017;-49
2021/01/18 05:26:25;;;;;;;0.20;0.10;;;;;;;2.96;100.00;101047.56;5061357;28;20458;-50
2021/01/18 05:28:54;;;;;;;0.20;0.10;;;;;;;3.01;100.00;101052.88;5047418;28;20809;-50
2021/01/18 05:31:26;;;;;;;0.20;0.10;;;;;;;3.03;100.00;101044.19;5059349;28;20475;-50
2021/01/18 05:33:57;;;;;;;0.20;0.10;;;;;;;3.14;100.00;101047.81;5063854;28;20447;-50
2021/01/18 05:36:35;;;;;;;0.20;0.20;;;;;;;3.19;100.00;101045.28;5065818;28;20446;-50
2021/01/18 05:39:14;;;;;;;0.20;0.10;;;;;;;3.24;100.00;101044.47;5063778;28;20524;-50
2021/01/18 05:41:42;;;;;;;0.20;0.10;;;;;;;3.38;100.00;101047.28;5059173;28;21043;-50
2021/01/18 05:44:09;;;;;;;0.20;0.10;;;;;;;3.32;100.00;101048.94;5059300;28;20501;-54
2021/01/18 05:46:37;;;;;;;0.20;0.10;;;;;;;3.48;100.00;101048.28;5065785;28;20451;-50
2021/01/18 05:49:07;;;;;;;0.20;0.10;;;;;;;3.28;100.00;101050.63;5058910;28;20451;-50
2021/01/18 05:51:34;;;;;;;0.20;0.10;;;;;;;3.38;100.00;101047.28;5064536;28;20478;-50
2021/01/18 05:54:01;;;;;;;0.30;0.10;;;;;;;3.33;100.00;101048.09;5065817;28;20515;-50
2021/01/18 05:56:37;;;;;;;0.20;0.10;;;;;;;3.32;100.00;101048.94;5060337;28;20446;-50
2021/01/18 05:59:16;;;;;;;0.20;0.10;;;;;;;3.31;100.00;101047.19;5058734;28;20447;-49
2021/01/18 06:01:43;;;;;;;0.20;0.10;;;;;;;3.39;100.00;101046.41;5061235;28;20986;-50
2021/01/18 06:04:12;;;;;;;0.20;0.10;;;;;;;3.46;100.00;101050.88;5065299;28;20447;-50
2021/01/18 06:06:41;;;;;;;0.20;0.10;;;;;;;3.39;100.00;101041.16;5064019;28;20450;-49
2021/01/18 06:09:07;;;;;;;0.20;0.10;;;;;;;3.44;100.00;101047.38;5058748;28;20460;-50
2021/01/18 06:11:33;;;;;;;0.20;0.10;;;;;;;3.37;100.00;101042.00;5059743;28;20467;-50
2021/01/18 06:14:05;;;;;;;0.20;0.10;;;;;;;3.42;100.00;101048.19;5065500;28;20457;-49
2021/01/18 06:16:32;;;;;;;0.20;0.10;;;;;;;3.35;100.00;101049.88;5064955;28;20449;-52
2021/01/18 06:19:00;;;;;;;0.20;0.10;;;;;;;3.41;100.00;101044.69;5058813;28;20477;-50
2021/01/18 06:21:40;;;;;;;0.20;0.10;;;;;;;3.46;100.00;101048.25;5071627;28;20535;-51
2021/01/18 06:24:14;;;;;;;0.20;0.10;;;;;;;3.42;100.00;101058.69;5060963;28;20448;-50
2021/01/18 06:26:41;;;;;;;0.20;0.10;;;;;;;3.41;100.00;101041.16;5058532;28;20453;-50
2021/01/18 06:29:07;;;;;;;0.20;0.10;;;;;;;3.45;100.00;101064.00;5052126;28;20451;-50
2021/01/18 06:31:45;;;;;;;0.20;0.10;;;;;;;3.23;100.00;101065.47;5052419;28;20461;-49
2021/01/18 06:34:26;;;;;;;2.03;0.60;;;;;;;3.20;100.00;101062.81;5063514;28;20801;-51
2021/01/18 06:36:55;;;;;;;0.20;0.10;;;;;;;3.30;100.00;101062.06;5050994;28;20457;-50
2021/01/18 06:39:24;;;;;;;0.20;0.10;;;;;;;3.26;100.00;101070.75;5062437;28;20498;-50
2021/01/18 06:41:55;;;;;;;0.20;0.10;;;;;;;3.22;100.00;101087.34;5068056;28;20528;-49
2021/01/18 06:44:33;;;;;;;0.20;0.10;;;;;;;3.28;100.00;101088.28;5069286;28;20472;-50
2021/01/18 06:46:59;;;;;;;0.20;0.10;;;;;;;3.15;100.00;101088.09;5066322;28;20987;-50
2021/01/18 06:49:27;;;;;;;0.20;0.10;;;;;;;3.22;100.00;101098.72;5062301;28;20891;-50
2021/01/18 06:51:58;;;;;;;0.20;0.10;;;;;;;3.26;100.00;101097.03;5064781;28;20470;-50
2021/01/18 06:54:29;;;;;;;0.20;0.10;;;;;;;3.28;100.00;101092.66;5069220;28;20455;-50
2021/01/18 06:57:27;;;;;;;0.20;0.10;;;;;;;3.33;100.00;101103.25;5067634;28;20498;-50
2021/01/18 07:00:00;;;;;;;0.20;0.10;;;;;;;3.54;100.00;101100.91;5065820;28;20520;-51
2021/01/18 07:02:27;;;;;;;0.20;0.10;;;;;;;3.46;100.00;101107.81;5068657;28;20447;-50
2021/01/18 07:05:10;;;;;;;0.20;0.10;;;;;;;3.51;100.00;101114.91;5066296;28;20474;-51
2021/01/18 07:07:38;;;;;;;0.20;0.10;;;;;;;3.53;100.00;101114.91;5069061;28;20827;-50
2021/01/18 07:10:10;;;;;;;0.20;0.10;;;;;;;3.48;100.00;101116.59;5068781;28;20518;-50
2021/01/18 07:12:37;;;;;;;0.20;0.10;;;;;;;3.40;100.00;101113.84;5068499;28;20446;-50
2021/01/18 07:15:08;;;;;;;0.20;0.10;;;;;;;3.33;100.00;101119.91;5068442;28;20472;-50
2021/01/18 07:17:47;;;;;;;0.20;0.10;;;;;;;3.43;100.00;101121.81;5063321;28;21009;-50
2021/01/18 07:20:20;;;;;;;0.20;0.10;;;;;;;3.42;100.00;101127.00;5072074;28;20560;-55
2021/01/18 07:23:07;;;;;;;0.20;0.10;;;;;;;3.22;100.00;101122.38;5068758;28;20464;-55
2021/01/18 07:25:45;;;;;;;0.20;0.10;;;;;;;3.34;100.00;101123.41;5067475;28;20454;-55
2021/01/18 07:28:13;;;;;;;0.20;0.10;;;;;;;3.29;100.00;101123.38;5064422;28;20445;-55
2021/01/18 07:30:40;;;;;;;0.20;0.10;;;;;;;3.24;100.00;101120.66;5063994;28;21056;-55
2021/01/18 07:33:09;;;;;;;0.20;0.10;;;;;;;3.37;100.00;101120.81;5061377;28;20461;-55
2021/01/18 07:35:36;;;;;;;0.20;0.10;;;;;;;3.25;100.00;101129.41;5065160;28;20501;-55
2021/01/18 07:38:16;;;;;;;0.20;0.10;;;;;;;3.27;100.00;101127.69;5067786;28;20532;-55
2021/01/18 07:41:07;;;;;;;0.20;0.20;;;;;;;3.22;100.00;101125.00;5066700;28;20492;-55
2021/01/18 07:43:35;;;;;;;0.20;0.10;;;;;;;3.15;100.00;101117.91;5065790;28;20443;-55
2021/01/18 07:46:30;;;;;;;0.20;0.10;;;;;;;3.30;100.00;101124.25;5067975;28;20447;-54
2021/01/18 07:48:59;;;;;;;0.20;0.20;;;;;;;3.26;100.00;101131.19;5060706;28;20462;-55
2021/01/18 07:51:32;;;;;;;0.20;0.10;;;;;;;3.46;100.00;101132.34;5048186;28;20520;-55
2021/01/18 07:53:58;;;;;;;0.20;0.10;;;;;;;3.27;100.00;101133.81;5060740;28;20812;-55
2021/01/18 07:56:29;;;;;;;0.20;0.10;;;;;;;3.39;100.00;101133.13;5067569;28;20447;-55
2021/01/18 07:59:07;;;;;;;0.20;0.10;;;;;;;3.42;100.00;101125.28;5067310;28;21002;-56
2021/01/18 08:01:36;;;;;;;0.20;0.10;;;;;;;3.43;100.00;101127.06;5063619;28;20477;-55
2021/01/18 08:04:17;;;;;;;0.20;0.10;;;;;;;3.32;100.00;101136.53;5060995;28;20567;-55
2021/01/18 08:07:06;;;;;;;0.20;0.10;;;;;;;3.36;100.00;101142.72;5062560;28;20450;-55
2021/01/18 08:09:33;;;;;;;0.20;0.10;;;;;;;3.31;100.00;101144.41;5050453;28;20977;-56
2021/01/18 08:12:31;;;;;;;0.20;0.10;;;;;;;3.30;100.00;101137.38;5060669;28;20528;-55
2021/01/18 08:15:07;;;;;;;0.20;0.10;;;;;;;3.24;100.00;101140.78;5061558;28;20443;-55
2021/01/18 08:17:35;;;;;;;0.20;0.10;;;;;;;3.37;100.00;101129.59;5048535;28;20485;-55
2021/01/18 08:20:13;;;;;;;0.20;0.10;;;;;;;3.43;100.00;101137.56;5073936;28;20458;-55
2021/01/18 08:22:40;;;;;;;0.20;0.10;;;;;;;3.47;100.00;101146.38;5063419;28;20996;-56
2021/01/18 08:25:07;;;;;;;0.20;0.10;;;;;;;3.52;100.00;101149.94;5066228;28;20504;-54
2021/01/18 08:27:48;;;;;;;0.20;0.10;;;;;;;3.43;100.00;101148.09;5064496;28;20449;-55
2021/01/18 08:30:18;;;;;;;0.20;0.13;;;;;;;3.49;100.00;101147.28;5060381;28;20466;-55
2021/01/18 08:32:54;;;;;;;0.20;0.10;;;;;;;3.52;100.00;101152.56;5060769;28;20504;-55
2021/01/18 08:35:32;;;;;;;0.20;0.10;;;;;;;3.41;100.00;101162.03;5049934;28;20529;-56
2021/01/18 08:38:06;;;;;;;0.20;0.10;;;;;;;3.59;100.00;101145.66;5070370;28;20577;-55
2021/01/18 08:40:41;;;;;;;0.20;0.10;;;;;;;3.53;100.00;101143.81;5064497;28;20458;-55
2021/01/18 08:43:08;;;;;;;0.20;0.10;;;;;;;3.74;100.00;101154.63;5060217;28;20450;-55
2021/01/18 08:45:39;;;;;;;0.20;0.10;;;;;;;3.65;100.00;101151.88;5061274;28;20477;-55
2021/01/18 08:48:08;;;;;;;0.20;0.20;;;;;;;3.62;100.00;101158.84;5066788;28;20966;-54
2021/01/18 08:50:44;;;;;;;0.20;0.10;;;;;;;3.56;100.00;101157.00;5059215;28;20833;-55
2021/01/18 08:53:34;;;;;;;0.20;0.10;;;;;;;3.49;100.00;101157.78;5065977;28;20447;-55
2021/01/18 08:56:01;;;;;;;0.20;0.10;;;;;;;3.53;100.00;101156.97;5064577;28;20451;-55
2021/01/18 08:58:42;;;;;;;0.20;0.10;;;;;;;3.46;100.00;101152.50;5064422;28;20489;-55
2021/01/18 09:01:19;;;;;;;0.20;0.10;;;;;;;3.68;100.00;101157.16;5059587;28;20473;-55
2021/01/18 09:03:55;;;;;;;0.20;0.10;;;;;;;3.62;100.00;101150.97;5059819;28;20449;-56
2021/01/18 09:06:22;;;;;;;0.20;0.10;;;;;;;3.91;100.00;101156.59;5064004;28;20442;-55
2021/01/18 09:08:48;;;;;;;0.20;0.10;;;;;;;3.70;100.00;101159.81;5066603;28;20442;-54
2021/01/18 09:11:14;;;;;;;0.20;0.10;;;;;;;3.79;100.00;101147.69;5062598;28;20473;-55
2021/01/18 09:13:40;;;;;;;0.20;0.20;;;;;;;3.74;100.00;101153.75;5059262;28;20459;-55
2021/01/18 09:16:08;;;;;;;0.20;0.10;;;;;;;3.91;100.00;101141.69;5063930;28;20451;-55
2021/01/18 09:18:36;;;;;;;0.20;0.10;;;;;;;3.95;100.00;101151.38;5069048;28;20478;-54
2021/01/18 09:21:06;;;;;;;0.20;0.10;;;;;;;3.83;100.00;101151.22;5072627;28;20989;-54
2021/01/18 09:23:32;;;;;;;0.20;0.10;;;;;;;3.81;100.00;101143.31;5059251;28;20537;-55
2021/01/18 09:26:00;;;;;;;0.20;0.10;;;;;;;3.87;100.00;101150.41;5061952;28;20458;-55
2021/01/18 09:28:27;;;;;;;0.20;0.10;;;;;;;4.01;100.00;101146.22;5066249;28;20551;-55
2021/01/18 09:30:54;;;;;;;0.20;0.20;;;;;;;4.04;100.00;101151.50;5064089;28;20470;-55
2021/01/18 09:33:26;;;;;;;0.20;0.10;;;;;;;4.21;100.00;101159.56;5059046;28;20503;-55
2021/01/18 09:35:52;;;;;;;0.20;0.10;;;;;;;4.29;100.00;101157.94;5060980;28;20447;-54
2021/01/18 09:38:18;;;;;;;0.30;0.20;;;;;;;4.22;100.00;101153.44;5066083;28;20483;-54
2021/01/18 09:40:44;;;;;;;0.20;0.10;;;;;;;4.33;100.00;101156.19;5064305;28;20470;-54
2021/01/18 09:43:11;;;;;;;0.20;0.10;;;;;;;4.24;100.00;101158.72;5059238;28;20454;-55
2021/01/18 09:45:38;;;;;;;0.20;0.10;;;;;;;4.41;100.00;101150.16;5060917;28;20455;-54
2021/01/18 09:48:09;;;;;;;0.20;0.10;;;;;;;4.58;100.00;101163.50;5065849;28;20446;-54
2021/01/18 09:50:37;;;;;;;0.20;0.20;;;;;;;4.45;100.00;101159.84;5045066;28;20475;-55
2021/01/18 09:53:06;;;;;;;0.20;0.10;;;;;;;4.51;100.00;101155.50;5052881;28;20476;-55
2021/01/18 09:55:40;;;;;;;0.20;0.20;;;;;;;4.75;100.00;101161.00;5059394;28;20451;-55
2021/01/18 09:58:13;;;;;;;0.20;0.10;;;;;;;4.60;100.00;101152.97;5047737;28;20492;-55
2021/01/18 10:00:42;;;;;;;0.20;0.10;;;;;;;4.93;100.00;101163.78;5058956;28;20466;-55
2021/01/18 10:03:10;;;;;;;0.20;0.10;;;;;;;4.62;100.00;101156.50;5063477;28;20451;-54
2021/01/18 10:05:42;;;;;;;0.20;0.10;;;;;;;4.86;100.00;101159.34;5065726;28;20515;-55
2021/01/18 10:08:12;;;;;;;0.20;0.10;;;;;;;4.94;100.00;101160.31;5061866;28;20446;-55
2021/01/18 10:10:47;;;;;;;0.30;0.13;;;;;;;4.94;100.00;101157.69;5058914;28;20477;-55
2021/01/18 10:13:18;;;;;;;0.20;0.10;;;;;;;4.96;100.00;101152.44;5060480;28;20797;-55
2021/01/18 10:15:46;;;;;;;1.70;1.60;;;;;;;4.93;100.00;101144.47;5064174;28;20940;-55
2021/01/18 10:18:50;;;;;;;0.20;0.10;;;;;;;4.92;100.00;101151.50;5064552;28;20490;-54
2021/01/18 10:21:17;;;;;;;0.20;0.10;;;;;;;4.96;100.00;101148.03;5071983;28;20493;-55
2021/01/18 10:23:47;;;;;;;0.20;0.10;;;;;;;5.08;100.00;101144.63;5058476;28;20453;-55
2021/01/18 10:26:19;;;;;;;0.20;0.10;;;;;;;5.15;100.00;101153.44;5059377;28;20450;-56
2021/01/18 10:28:50;;;;;;;0.20;0.10;;;;;;;4.95;100.00;101148.03;5045810;28;20453;-55
2021/01/18 10:31:33;;;;;;;0.20;0.10;;;;;;;5.14;100.00;101135.88;5058691;28;20540;-55
2021/01/18 10:34:25;;;;;;;0.20;0.10;;;;;;;5.26;100.00;101146.50;5062375;28;20451;-56
2021/01/18 10:36:54;;;;;;;0.20;0.10;;;;;;;5.06;100.00;101139.31;5046329;28;20503;-55
2021/01/18 10:39:31;;;;;;;0.20;0.10;;;;;;;5.22;100.00;101142.97;5058732;28;20636;-53
2021/01/18 10:42:12;;;;;;;0.20;0.10;;;;;;;5.17;100.00;101138.50;5061905;28;20443;-55
2021/01/18 10:44:47;;;;;;;0.20;0.10;;;;;;;5.08;100.00;101131.44;5065336;28;20478;-55
2021/01/18 10:47:13;;;;;;;0.20;0.20;;;;;;;5.42;100.00;101132.53;5064092;28;20495;-54
2021/01/18 10:49:39;;;;;;;0.20;0.20;;;;;;;5.22;100.00;101131.53;5057984;28;20492;-55
2021/01/18 10:52:11;;;;;;;0.20;0.10;;;;;;;5.28;100.00;101134.22;5059913;28;20883;-55
2021/01/18 10:54:38;;;;;;;0.20;0.20;;;;;;;5.60;100.00;101134.38;5065322;28;20829;-55
2021/01/18 10:57:21;;;;;;;0.20;0.10;;;;;;;5.32;100.00;101136.88;5064918;28;20445;-55
2021/01/18 11:00:06;;;;;;;0.20;0.10;;;;;;;5.45;100.00;101142.22;5061997;28;20439;-55
2021/01/18 11:02:32;;;;;;;0.20;0.10;;;;;;;5.65;100.00;101136.19;5065152;28;20504;-55
2021/01/18 11:05:00;;;;;;;0.20;0.10;;;;;;;5.40;100.00;101142.19;5063422;28;20457;-55
2021/01/18 11:07:27;;;;;;;0.20;0.20;;;;;;;5.51;100.00;101143.16;5058428;28;20453;-56
2021/01/18 11:09:57;;;;;;;0.20;0.10;;;;;;;5.69;100.00;101131.81;5059888;28;20484;-55
2021/01/18 11:12:33;;;;;;;0.20;0.10;;;;;;;5.55;100.00;101134.38;5064864;28;20451;-55
2021/01/18 11:15:00;;;;;;;0.20;0.10;;;;;;;5.50;100.00;101127.31;5065048;28;20453;-55
2021/01/18 11:17:29;;;;;;;0.20;0.10;;;;;;;5.70;100.00;101128.28;5058932;28;20449;-55
2021/01/18 11:19:55;;;;;;;0.20;0.10;;;;;;;5.85;100.00;101123.09;5074081;28;20497;-56
2021/01/18 11:22:22;;;;;;;0.20;0.10;;;;;;;5.71;100.00;101115.97;5067063;28;21006;-55
2021/01/18 11:24:48;;;;;;;0.20;0.10;;;;;;;5.85;100.00;101117.81;5068483;28;20454;-55
2021/01/18 11:27:15;;;;;;;0.20;0.10;;;;;;;5.92;100.00;101117.00;5062826;28;20458;-55
2021/01/18 11:29:42;;;;;;;0.20;0.10;;;;;;;6.19;99.45;101107.41;5061682;28;20450;-55
2021/01/18 11:32:09;;;;;;;0.20;0.10;;;;;;;6.11;99.92;101111.78;5066788;28;20447;-55
2021/01/18 11:34:35;;;;;;;0.20;0.10;;;;;;;6.32;99.82;101106.56;5068026;28;20998;-55
2021/01/18 11:37:04;;;;;;;0.20;0.20;;;;;;;6.29;99.00;101105.66;5063588;28;20441;-55
2021/01/18 11:39:30;;;;;;;0.20;0.10;;;;;;;6.03;98.63;101101.22;5060926;28;20489;-54
2021/01/18 11:41:59;;;;;;;0.20;0.10;;;;;;;6.24;98.40;101103.88;5066141;28;20470;-54
2021/01/18 11:44:25;;;;;;;0.20;0.10;;;;;;;6.14;99.53;101104.75;5068207;28;20507;-56